sensor_id;sensor_type;location;lat;lon;timestamp;temperature;humidity
68867;SHT30;56451;44.804;20.476;2023-10-19T00:00:55;15.68;55.37
68867;SHT30;56451;44.804;20.476;2023-10-19T00:03:25;15.70;55.39
68867;SHT30;56451;44.804;20.476;2023-10-19T00:05:52;15.70;55.43
68867;SHT30;56451;44.804;20.476;2023-10-19T00:08:21;15.69;55.49
68867;SHT30;56451;44.804;20.476;2023-10-19T00:10:52;15.69;55.45
68867;SHT30;56451;44.804;20.476;2023-10-19T00:13:30;15.70;55.61
68867;SHT30;56451;44.804;20.476;2023-10-19T00:15:56;15.70;55.63
68867;SHT30;56451;44.804;20.476;2023-10-19T00:18:25;15.76;55.51
68867;SHT30;56451;44.804;20.476;2023-10-19T00:20:55;15.76;55.26
68867;SHT30;56451;44.804;20.476;2023-10-19T00:23:25;15.81;55.27
68867;SHT30;56451;44.804;20.476;2023-10-19T00:25:58;15.81;55.35
68867;SHT30;56451;44.804;20.476;2023-10-19T00:28:26;15.81;55.34
68867;SHT30;56451;44.804;20.476;2023-10-19T00:30:54;15.85;55.22
68867;SHT30;56451;44.804;20.476;2023-10-19T00:33:25;15.85;55.20
68867;SHT30;56451;44.804;20.476;2023-10-19T00:35:54;15.86;55.22
68867;SHT30;56451;44.804;20.476;2023-10-19T00:38:42;15.86;55.24
68867;SHT30;56451;44.804;20.476;2023-10-19T00:41:20;15.83;55.36
68867;SHT30;56451;44.804;20.476;2023-10-19T00:43:56;15.82;55.84
68867;SHT30;56451;44.804;20.476;2023-10-19T00:46:37;15.73;56.37
68867;SHT30;56451;44.804;20.476;2023-10-19T00:49:07;15.78;56.35
68867;SHT30;56451;44.804;20.476;2023-10-19T00:51:55;15.70;56.68
68867;SHT30;56451;44.804;20.476;2023-10-19T00:54:35;15.70;56.46
68867;SHT30;56451;44.804;20.476;2023-10-19T00:57:04;15.69;56.48
68867;SHT30;56451;44.804;20.476;2023-10-19T00:59:41;15.63;56.53
68867;SHT30;56451;44.804;20.476;2023-10-19T01:02:33;15.65;56.55
68867;SHT30;56451;44.804;20.476;2023-10-19T01:04:59;15.63;56.50
68867;SHT30;56451;44.804;20.476;2023-10-19T01:07:28;15.65;56.50
68867;SHT30;56451;44.804;20.476;2023-10-19T01:09:56;15.70;56.45
68867;SHT30;56451;44.804;20.476;2023-10-19T01:12:23;15.66;56.56
68867;SHT30;56451;44.804;20.476;2023-10-19T01:15:09;15.69;56.45
68867;SHT30;56451;44.804;20.476;2023-10-19T01:17:55;15.72;56.53
68867;SHT30;56451;44.804;20.476;2023-10-19T01:20:35;15.78;56.44
68867;SHT30;56451;44.804;20.476;2023-10-19T01:23:17;15.82;56.10
68867;SHT30;56451;44.804;20.476;2023-10-19T01:25:57;15.83;56.02
68867;SHT30;56451;44.804;20.476;2023-10-19T01:28:36;15.88;56.02
68867;SHT30;56451;44.804;20.476;2023-10-19T01:31:11;15.82;56.15
68867;SHT30;56451;44.804;20.476;2023-10-19T01:33:44;15.86;56.10
68867;SHT30;56451;44.804;20.476;2023-10-19T01:36:14;15.82;56.23
68867;SHT30;56451;44.804;20.476;2023-10-19T01:39:03;15.85;56.11
68867;SHT30;56451;44.804;20.476;2023-10-19T01:41:43;15.86;56.10
68867;SHT30;56451;44.804;20.476;2023-10-19T01:44:22;15.92;55.94
68867;SHT30;56451;44.804;20.476;2023-10-19T01:46:52;15.93;55.89
68867;SHT30;56451;44.804;20.476;2023-10-19T01:49:23;15.95;55.99
68867;SHT30;56451;44.804;20.476;2023-10-19T01:52:08;15.93;56.52
68867;SHT30;56451;44.804;20.476;2023-10-19T01:54:49;15.92;57.18
68867;SHT30;56451;44.804;20.476;2023-10-19T01:57:36;15.90;57.80
68867;SHT30;56451;44.804;20.476;2023-10-19T02:00:06;15.89;58.01
68867;SHT30;56451;44.804;20.476;2023-10-19T02:02:43;15.85;58.48
68867;SHT30;56451;44.804;20.476;2023-10-19T02:05:27;15.85;58.29
68867;SHT30;56451;44.804;20.476;2023-10-19T02:08:10;15.85;58.19
68867;SHT30;56451;44.804;20.476;2023-10-19T02:10:53;15.81;58.29
68867;SHT30;56451;44.804;20.476;2023-10-19T02:13:21;15.79;58.40
68867;SHT30;56451;44.804;20.476;2023-10-19T02:15:47;15.78;58.28
68867;SHT30;56451;44.804;20.476;2023-10-19T02:18:20;15.76;58.14
68867;SHT30;56451;44.804;20.476;2023-10-19T02:21:06;15.73;58.29
68867;SHT30;56451;44.804;20.476;2023-10-19T02:23:50;15.76;58.17
68867;SHT30;56451;44.804;20.476;2023-10-19T02:26:30;15.73;58.11
68867;SHT30;56451;44.804;20.476;2023-10-19T02:28:57;15.73;58.28
68867;SHT30;56451;44.804;20.476;2023-10-19T02:31:31;15.76;58.19
68867;SHT30;56451;44.804;20.476;2023-10-19T02:34:07;15.75;58.15
68867;SHT30;56451;44.804;20.476;2023-10-19T02:36:44;15.76;58.29
68867;SHT30;56451;44.804;20.476;2023-10-19T02:39:24;15.76;58.34
68867;SHT30;56451;44.804;20.476;2023-10-19T02:42:04;15.81;58.23
68867;SHT30;56451;44.804;20.476;2023-10-19T02:44:36;15.79;58.11
68867;SHT30;56451;44.804;20.476;2023-10-19T02:47:14;15.79;58.14
68867;SHT30;56451;44.804;20.476;2023-10-19T02:49:45;15.79;58.09
68867;SHT30;56451;44.804;20.476;2023-10-19T02:52:30;15.81;58.05
68867;SHT30;56451;44.804;20.476;2023-10-19T02:55:10;15.85;57.84
68867;SHT30;56451;44.804;20.476;2023-10-19T02:58:00;15.86;57.77
68867;SHT30;56451;44.804;20.476;2023-10-19T03:00:27;15.90;57.71
68867;SHT30;56451;44.804;20.476;2023-10-19T03:02:59;15.90;57.44
68867;SHT30;56451;44.804;20.476;2023-10-19T03:05:29;15.93;57.35
68867;SHT30;56451;44.804;20.476;2023-10-19T03:07:56;15.96;57.44
68867;SHT30;56451;44.804;20.476;2023-10-19T03:10:22;16.00;57.25
68867;SHT30;56451;44.804;20.476;2023-10-19T03:13:00;15.95;57.32
68867;SHT30;56451;44.804;20.476;2023-10-19T03:15:30;15.99;57.33
68867;SHT30;56451;44.804;20.476;2023-10-19T03:17:56;16.00;57.28
68867;SHT30;56451;44.804;20.476;2023-10-19T03:20:22;16.03;57.86
68867;SHT30;56451;44.804;20.476;2023-10-19T03:22:51;15.99;58.78
68867;SHT30;56451;44.804;20.476;2023-10-19T03:25:16;16.00;59.09
68867;SHT30;56451;44.804;20.476;2023-10-19T03:28:01;15.97;59.64
68867;SHT30;56451;44.804;20.476;2023-10-19T03:33:37;15.95;60.80
68867;SHT30;56451;44.804;20.476;2023-10-19T03:36:06;15.93;60.66
68867;SHT30;56451;44.804;20.476;2023-10-19T03:38:39;15.93;60.72
68867;SHT30;56451;44.804;20.476;2023-10-19T03:41:07;15.90;60.74
68867;SHT30;56451;44.804;20.476;2023-10-19T03:43:34;15.86;61.22
68867;SHT30;56451;44.804;20.476;2023-10-19T03:46:03;15.82;61.64
68867;SHT30;56451;44.804;20.476;2023-10-19T03:48:40;15.78;61.69
68867;SHT30;56451;44.804;20.476;2023-10-19T03:51:06;15.76;62.31
68867;SHT30;56451;44.804;20.476;2023-10-19T03:53:37;15.75;62.54
68867;SHT30;56451;44.804;20.476;2023-10-19T03:56:04;15.66;62.97
68867;SHT30;56451;44.804;20.476;2023-10-19T03:58:37;15.62;63.49
68867;SHT30;56451;44.804;20.476;2023-10-19T04:01:04;15.65;63.51
68867;SHT30;56451;44.804;20.476;2023-10-19T04:03:30;15.62;63.58
68867;SHT30;56451;44.804;20.476;2023-10-19T04:05:56;15.51;63.89
68867;SHT30;56451;44.804;20.476;2023-10-19T04:08:26;15.52;63.96
68867;SHT30;56451;44.804;20.476;2023-10-19T04:10:52;15.49;63.90
68867;SHT30;56451;44.804;20.476;2023-10-19T04:13:38;15.47;64.09
68867;SHT30;56451;44.804;20.476;2023-10-19T04:16:05;15.48;63.95
68867;SHT30;56451;44.804;20.476;2023-10-19T04:18:36;15.45;64.16
68867;SHT30;56451;44.804;20.476;2023-10-19T04:21:07;15.49;63.88
68867;SHT30;56451;44.804;20.476;2023-10-19T04:23:37;15.49;63.63
68867;SHT30;56451;44.804;20.476;2023-10-19T04:26:05;15.54;63.19
68867;SHT30;56451;44.804;20.476;2023-10-19T04:28:39;15.54;63.36
68867;SHT30;56451;44.804;20.476;2023-10-19T04:31:17;15.58;62.99
68867;SHT30;56451;44.804;20.476;2023-10-19T04:33:49;15.57;62.87
68867;SHT30;56451;44.804;20.476;2023-10-19T04:36:26;15.58;62.93
68867;SHT30;56451;44.804;20.476;2023-10-19T04:38:53;15.62;62.96
68867;SHT30;56451;44.804;20.476;2023-10-19T04:41:27;15.63;62.69
68867;SHT30;56451;44.804;20.476;2023-10-19T04:44:02;15.63;62.78
68867;SHT30;56451;44.804;20.476;2023-10-19T04:46:29;15.61;62.88
68867;SHT30;56451;44.804;20.476;2023-10-19T04:48:59;15.62;62.82
68867;SHT30;56451;44.804;20.476;2023-10-19T04:51:40;15.61;62.75
68867;SHT30;56451;44.804;20.476;2023-10-19T04:54:10;15.59;62.81
68867;SHT30;56451;44.804;20.476;2023-10-19T04:56:49;15.66;62.34
68867;SHT30;56451;44.804;20.476;2023-10-19T04:59:24;15.66;62.15
68867;SHT30;56451;44.804;20.476;2023-10-19T05:01:51;15.69;62.19
68867;SHT30;56451;44.804;20.476;2023-10-19T05:04:24;15.68;61.96
68867;SHT30;56451;44.804;20.476;2023-10-19T05:06:59;15.75;61.87
68867;SHT30;56451;44.804;20.476;2023-10-19T05:09:36;15.76;61.42
68867;SHT30;56451;44.804;20.476;2023-10-19T05:12:06;15.73;61.58
68867;SHT30;56451;44.804;20.476;2023-10-19T05:14:36;15.70;61.81
68867;SHT30;56451;44.804;20.476;2023-10-19T05:17:02;15.73;61.64
68867;SHT30;56451;44.804;20.476;2023-10-19T05:19:32;15.72;61.99
68867;SHT30;56451;44.804;20.476;2023-10-19T05:22:00;15.65;62.24
68867;SHT30;56451;44.804;20.476;2023-10-19T05:24:34;15.65;62.48
68867;SHT30;56451;44.804;20.476;2023-10-19T05:27:02;15.63;62.68
68867;SHT30;56451;44.804;20.476;2023-10-19T05:29:31;15.63;62.86
68867;SHT30;56451;44.804;20.476;2023-10-19T05:31:57;15.61;63.01
68867;SHT30;56451;44.804;20.476;2023-10-19T05:34:27;15.58;63.15
68867;SHT30;56451;44.804;20.476;2023-10-19T05:36:55;15.52;63.37
68867;SHT30;56451;44.804;20.476;2023-10-19T05:39:24;15.51;63.63
68867;SHT30;56451;44.804;20.476;2023-10-19T05:41:54;15.49;63.76
68867;SHT30;56451;44.804;20.476;2023-10-19T05:44:20;15.47;63.91
68867;SHT30;56451;44.804;20.476;2023-10-19T05:46:46;15.45;63.89
68867;SHT30;56451;44.804;20.476;2023-10-19T05:49:12;15.44;64.02
68867;SHT30;56451;44.804;20.476;2023-10-19T05:51:38;15.44;63.98
68867;SHT30;56451;44.804;20.476;2023-10-19T05:54:05;15.45;64.12
68867;SHT30;56451;44.804;20.476;2023-10-19T05:56:31;15.45;63.94
68867;SHT30;56451;44.804;20.476;2023-10-19T05:59:00;15.44;64.00
68867;SHT30;56451;44.804;20.476;2023-10-19T06:01:26;15.45;63.89
68867;SHT30;56451;44.804;20.476;2023-10-19T06:03:53;15.47;64.05
68867;SHT30;56451;44.804;20.476;2023-10-19T06:06:19;15.42;64.04
68867;SHT30;56451;44.804;20.476;2023-10-19T06:08:46;15.47;64.03
68867;SHT30;56451;44.804;20.476;2023-10-19T06:11:12;15.48;64.08
68867;SHT30;56451;44.804;20.476;2023-10-19T06:13:38;15.51;63.89
68867;SHT30;56451;44.804;20.476;2023-10-19T06:16:04;15.57;63.93
68867;SHT30;56451;44.804;20.476;2023-10-19T06:18:30;15.57;63.82
68867;SHT30;56451;44.804;20.476;2023-10-19T06:20:57;15.59;63.66
68867;SHT30;56451;44.804;20.476;2023-10-19T06:23:23;15.62;63.63
68867;SHT30;56451;44.804;20.476;2023-10-19T06:25:49;15.62;63.64
68867;SHT30;56451;44.804;20.476;2023-10-19T06:28:17;15.68;63.73
68867;SHT30;56451;44.804;20.476;2023-10-19T06:30:43;15.70;63.57
68867;SHT30;56451;44.804;20.476;2023-10-19T06:33:09;15.73;63.57
68867;SHT30;56451;44.804;20.476;2023-10-19T06:35:35;15.75;63.68
68867;SHT30;56451;44.804;20.476;2023-10-19T06:38:03;15.83;63.46
68867;SHT30;56451;44.804;20.476;2023-10-19T06:40:30;15.83;63.33
68867;SHT30;56451;44.804;20.476;2023-10-19T06:42:57;15.86;63.34
68867;SHT30;56451;44.804;20.476;2023-10-19T06:45:24;15.92;63.34
68867;SHT30;56451;44.804;20.476;2023-10-19T06:47:55;15.97;63.32
68867;SHT30;56451;44.804;20.476;2023-10-19T06:50:23;16.05;63.68
68867;SHT30;56451;44.804;20.476;2023-10-19T06:52:49;16.14;63.48
68867;SHT30;56451;44.804;20.476;2023-10-19T06:55:16;16.24;63.25
68867;SHT30;56451;44.804;20.476;2023-10-19T06:57:47;16.34;62.82
68867;SHT30;56451;44.804;20.476;2023-10-19T07:00:15;16.44;62.56
68867;SHT30;56451;44.804;20.476;2023-10-19T07:02:51;16.48;62.56
68867;SHT30;56451;44.804;20.476;2023-10-19T07:05:18;16.58;62.53
68867;SHT30;56451;44.804;20.476;2023-10-19T07:07:47;16.63;62.35
68867;SHT30;56451;44.804;20.476;2023-10-19T07:10:13;16.71;62.05
68867;SHT30;56451;44.804;20.476;2023-10-19T07:12:45;16.78;61.90
68867;SHT30;56451;44.804;20.476;2023-10-19T07:15:13;16.86;61.82
68867;SHT30;56451;44.804;20.476;2023-10-19T07:17:43;16.91;61.89
68867;SHT30;56451;44.804;20.476;2023-10-19T07:20:10;16.99;62.21
68867;SHT30;56451;44.804;20.476;2023-10-19T07:22:59;17.05;61.92
68867;SHT30;56451;44.804;20.476;2023-10-19T07:25:29;17.08;62.80
68867;SHT30;56451;44.804;20.476;2023-10-19T07:27:55;17.15;63.49
68867;SHT30;56451;44.804;20.476;2023-10-19T07:30:21;17.22;62.85
68867;SHT30;56451;44.804;20.476;2023-10-19T07:32:52;17.27;62.11
68867;SHT30;56451;44.804;20.476;2023-10-19T07:35:27;17.32;62.20
68867;SHT30;56451;44.804;20.476;2023-10-19T07:37:55;17.36;62.37
68867;SHT30;56451;44.804;20.476;2023-10-19T07:40:22;17.40;62.64
68867;SHT30;56451;44.804;20.476;2023-10-19T07:42:49;17.43;62.34
68867;SHT30;56451;44.804;20.476;2023-10-19T07:45:18;17.46;62.37
68867;SHT30;56451;44.804;20.476;2023-10-19T07:47:51;17.53;62.29
68867;SHT30;56451;44.804;20.476;2023-10-19T07:50:21;17.60;62.15
68867;SHT30;56451;44.804;20.476;2023-10-19T07:52:52;17.63;61.99
68867;SHT30;56451;44.804;20.476;2023-10-19T07:55:22;17.71;61.71
68867;SHT30;56451;44.804;20.476;2023-10-19T07:57:55;17.78;61.64
68867;SHT30;56451;44.804;20.476;2023-10-19T08:00:23;17.87;61.11
68867;SHT30;56451;44.804;20.476;2023-10-19T08:02:51;17.91;60.71
68867;SHT30;56451;44.804;20.476;2023-10-19T08:05:27;18.01;61.08
68867;SHT30;56451;44.804;20.476;2023-10-19T08:07:54;18.05;61.14
68867;SHT30;56451;44.804;20.476;2023-10-19T08:10:35;18.16;61.34
68867;SHT30;56451;44.804;20.476;2023-10-19T08:13:02;18.22;60.47
68867;SHT30;56451;44.804;20.476;2023-10-19T08:15:29;18.29;60.34
68867;SHT30;56451;44.804;20.476;2023-10-19T08:17:56;18.33;60.19
68867;SHT30;56451;44.804;20.476;2023-10-19T08:20:24;18.42;60.03
68867;SHT30;56451;44.804;20.476;2023-10-19T08:22:58;18.46;59.78
68867;SHT30;56451;44.804;20.476;2023-10-19T08:25:25;18.50;59.95
68867;SHT30;56451;44.804;20.476;2023-10-19T08:27:56;18.59;59.63
68867;SHT30;56451;44.804;20.476;2023-10-19T08:30:27;18.67;59.97
68867;SHT30;56451;44.804;20.476;2023-10-19T08:32:55;18.73;59.34
68867;SHT30;56451;44.804;20.476;2023-10-19T08:35:26;18.81;58.99
68867;SHT30;56451;44.804;20.476;2023-10-19T08:37:56;18.88;58.48
68867;SHT30;56451;44.804;20.476;2023-10-19T08:40:25;18.97;58.99
68867;SHT30;56451;44.804;20.476;2023-10-19T08:42:57;19.01;58.30
68867;SHT30;56451;44.804;20.476;2023-10-19T08:45:25;19.11;58.09
68867;SHT30;56451;44.804;20.476;2023-10-19T08:48:01;19.14;58.07
68867;SHT30;56451;44.804;20.476;2023-10-19T08:50:33;19.22;57.73
68867;SHT30;56451;44.804;20.476;2023-10-19T08:53:15;19.27;57.34
68867;SHT30;56451;44.804;20.476;2023-10-19T08:55:47;19.34;57.33
68867;SHT30;56451;44.804;20.476;2023-10-19T08:58:19;19.41;56.97
68867;SHT30;56451;44.804;20.476;2023-10-19T09:00:49;19.48;56.70
68867;SHT30;56451;44.804;20.476;2023-10-19T09:03:33;19.58;56.33
68867;SHT30;56451;44.804;20.476;2023-10-19T09:06:21;19.65;56.33
68867;SHT30;56451;44.804;20.476;2023-10-19T09:08:50;19.75;56.23
68867;SHT30;56451;44.804;20.476;2023-10-19T09:11:17;19.79;56.37
68867;SHT30;56451;44.804;20.476;2023-10-19T09:13:53;19.84;56.21
68867;SHT30;56451;44.804;20.476;2023-10-19T09:16:29;19.93;55.66
68867;SHT30;56451;44.804;20.476;2023-10-19T09:19:00;20.00;55.43
68867;SHT30;56451;44.804;20.476;2023-10-19T09:21:27;20.10;55.39
68867;SHT30;56451;44.804;20.476;2023-10-19T09:23:57;20.14;55.41
68867;SHT30;56451;44.804;20.476;2023-10-19T09:26:28;20.17;55.21
68867;SHT30;56451;44.804;20.476;2023-10-19T09:28:56;20.21;55.17
68867;SHT30;56451;44.804;20.476;2023-10-19T09:31:22;20.28;54.89
68867;SHT30;56451;44.804;20.476;2023-10-19T09:33:50;20.33;54.93
68867;SHT30;56451;44.804;20.476;2023-10-19T09:36:16;20.35;55.20
68867;SHT30;56451;44.804;20.476;2023-10-19T09:38:49;20.41;55.19
68867;SHT30;56451;44.804;20.476;2023-10-19T09:41:18;20.45;54.90
68867;SHT30;56451;44.804;20.476;2023-10-19T09:43:46;20.52;54.64
68867;SHT30;56451;44.804;20.476;2023-10-19T09:46:26;20.59;54.47
68867;SHT30;56451;44.804;20.476;2023-10-19T09:48:55;20.65;54.29
68867;SHT30;56451;44.804;20.476;2023-10-19T09:51:22;20.69;54.20
68867;SHT30;56451;44.804;20.476;2023-10-19T09:53:53;20.75;53.74
68867;SHT30;56451;44.804;20.476;2023-10-19T09:56:21;20.79;53.79
68867;SHT30;56451;44.804;20.476;2023-10-19T09:58:55;20.82;53.96
68867;SHT30;56451;44.804;20.476;2023-10-19T10:01:24;20.86;54.03
68867;SHT30;56451;44.804;20.476;2023-10-19T10:03:52;20.88;54.13
68867;SHT30;56451;44.804;20.476;2023-10-19T10:06:30;20.93;53.58
68867;SHT30;56451;44.804;20.476;2023-10-19T10:09:00;20.99;53.35
68867;SHT30;56451;44.804;20.476;2023-10-19T10:11:27;21.02;53.29
68867;SHT30;56451;44.804;20.476;2023-10-19T10:13:55;21.04;53.30
68867;SHT30;56451;44.804;20.476;2023-10-19T10:16:27;21.07;53.37
68867;SHT30;56451;44.804;20.476;2023-10-19T10:18:59;21.13;53.22
68867;SHT30;56451;44.804;20.476;2023-10-19T10:21:26;21.13;53.29
68867;SHT30;56451;44.804;20.476;2023-10-19T10:26:25;21.23;53.07
68867;SHT30;56451;44.804;20.476;2023-10-19T10:29:23;21.29;52.81
68867;SHT30;56451;44.804;20.476;2023-10-19T10:31:50;21.30;52.76
68867;SHT30;56451;44.804;20.476;2023-10-19T10:37:04;21.36;52.72
68867;SHT30;56451;44.804;20.476;2023-10-19T10:39:34;21.44;51.99
68867;SHT30;56451;44.804;20.476;2023-10-19T10:42:05;21.44;51.76
68867;SHT30;56451;44.804;20.476;2023-10-19T10:44:48;21.50;51.69
68867;SHT30;56451;44.804;20.476;2023-10-19T10:47:21;21.53;51.72
68867;SHT30;56451;44.804;20.476;2023-10-19T10:49:56;21.60;51.40
68867;SHT30;56451;44.804;20.476;2023-10-19T10:52:32;21.65;51.33
68867;SHT30;56451;44.804;20.476;2023-10-19T10:55:10;21.71;51.41
68867;SHT30;56451;44.804;20.476;2023-10-19T10:57:40;21.75;51.73
68867;SHT30;56451;44.804;20.476;2023-10-19T11:00:11;21.78;51.33
68867;SHT30;56451;44.804;20.476;2023-10-19T11:03:00;21.85;51.39
68867;SHT30;56451;44.804;20.476;2023-10-19T11:05:26;21.88;51.13
68867;SHT30;56451;44.804;20.476;2023-10-19T11:08:13;21.91;51.35
68867;SHT30;56451;44.804;20.476;2023-10-19T11:10:41;21.95;51.25
68867;SHT30;56451;44.804;20.476;2023-10-19T11:13:13;21.98;51.06
68867;SHT30;56451;44.804;20.476;2023-10-19T11:15:48;21.98;50.67
68867;SHT30;56451;44.804;20.476;2023-10-19T11:18:35;22.06;50.97
68867;SHT30;56451;44.804;20.476;2023-10-19T11:21:05;22.06;51.02
68867;SHT30;56451;44.804;20.476;2023-10-19T11:26:07;22.10;50.91
68867;SHT30;56451;44.804;20.476;2023-10-19T11:28:34;22.19;50.82
68867;SHT30;56451;44.804;20.476;2023-10-19T11:31:13;22.19;50.60
68867;SHT30;56451;44.804;20.476;2023-10-19T11:33:44;22.25;50.24
68867;SHT30;56451;44.804;20.476;2023-10-19T11:36:12;22.29;50.10
68867;SHT30;56451;44.804;20.476;2023-10-19T11:38:43;22.30;49.96
68867;SHT30;56451;44.804;20.476;2023-10-19T11:41:11;22.36;50.13
68867;SHT30;56451;44.804;20.476;2023-10-19T11:43:39;22.40;49.82
68867;SHT30;56451;44.804;20.476;2023-10-19T11:46:09;22.45;49.47
68867;SHT30;56451;44.804;20.476;2023-10-19T11:48:36;22.43;48.93
68867;SHT30;56451;44.804;20.476;2023-10-19T11:51:03;22.45;48.87
68867;SHT30;56451;44.804;20.476;2023-10-19T11:53:34;22.42;49.07
68867;SHT30;56451;44.804;20.476;2023-10-19T11:56:04;22.43;49.07
68867;SHT30;56451;44.804;20.476;2023-10-19T11:58:35;22.42;49.08
68867;SHT30;56451;44.804;20.476;2023-10-19T12:01:04;22.32;49.15
68867;SHT30;56451;44.804;20.476;2023-10-19T12:03:42;22.36;49.24
68867;SHT30;56451;44.804;20.476;2023-10-19T12:06:13;22.35;49.41
68867;SHT30;56451;44.804;20.476;2023-10-19T12:08:45;22.39;49.41
68867;SHT30;56451;44.804;20.476;2023-10-19T12:11:14;22.39;49.34
68867;SHT30;56451;44.804;20.476;2023-10-19T12:13:46;22.40;49.35
68867;SHT30;56451;44.804;20.476;2023-10-19T12:16:13;22.46;49.18
68867;SHT30;56451;44.804;20.476;2023-10-19T12:18:45;22.52;49.19
68867;SHT30;56451;44.804;20.476;2023-10-19T12:21:12;22.53;49.21
68867;SHT30;56451;44.804;20.476;2023-10-19T12:23:42;22.49;49.41
68867;SHT30;56451;44.804;20.476;2023-10-19T12:26:10;22.49;49.63
68867;SHT30;56451;44.804;20.476;2023-10-19T12:28:41;22.52;49.51
68867;SHT30;56451;44.804;20.476;2023-10-19T12:31:09;22.53;49.92
68867;SHT30;56451;44.804;20.476;2023-10-19T12:33:37;22.59;49.65
68867;SHT30;56451;44.804;20.476;2023-10-19T12:36:05;22.59;49.83
68867;SHT30;56451;44.804;20.476;2023-10-19T12:38:54;22.61;49.87
68867;SHT30;56451;44.804;20.476;2023-10-19T12:41:22;22.60;49.96
68867;SHT30;56451;44.804;20.476;2023-10-19T12:43:50;22.64;50.06
68867;SHT30;56451;44.804;20.476;2023-10-19T12:46:36;22.71;49.72
68867;SHT30;56451;44.804;20.476;2023-10-19T12:49:06;22.74;49.44
68867;SHT30;56451;44.804;20.476;2023-10-19T12:51:40;22.77;49.13
68867;SHT30;56451;44.804;20.476;2023-10-19T12:54:11;22.80;48.86
68867;SHT30;56451;44.804;20.476;2023-10-19T12:56:39;22.83;48.68
68867;SHT30;56451;44.804;20.476;2023-10-19T12:59:07;22.84;48.83
68867;SHT30;56451;44.804;20.476;2023-10-19T13:01:36;22.86;48.84
68867;SHT30;56451;44.804;20.476;2023-10-19T13:04:03;22.88;48.62
68867;SHT30;56451;44.804;20.476;2023-10-19T13:06:42;22.86;48.69
68867;SHT30;56451;44.804;20.476;2023-10-19T13:09:09;22.80;48.82
68867;SHT30;56451;44.804;20.476;2023-10-19T13:11:35;22.83;48.56
68867;SHT30;56451;44.804;20.476;2023-10-19T13:14:01;22.83;48.73
68867;SHT30;56451;44.804;20.476;2023-10-19T13:16:28;22.77;48.72
68867;SHT30;56451;44.804;20.476;2023-10-19T13:18:55;22.87;48.55
68867;SHT30;56451;44.804;20.476;2023-10-19T13:21:21;22.83;48.68
68867;SHT30;56451;44.804;20.476;2023-10-19T13:23:54;22.78;48.99
68867;SHT30;56451;44.804;20.476;2023-10-19T13:26:20;22.77;49.18
68867;SHT30;56451;44.804;20.476;2023-10-19T13:28:46;22.75;49.19
68867;SHT30;56451;44.804;20.476;2023-10-19T13:31:12;22.74;49.50
68867;SHT30;56451;44.804;20.476;2023-10-19T13:33:42;22.75;49.44
68867;SHT30;56451;44.804;20.476;2023-10-19T13:36:10;22.73;49.23
68867;SHT30;56451;44.804;20.476;2023-10-19T13:38:36;22.70;49.21
68867;SHT30;56451;44.804;20.476;2023-10-19T13:41:06;22.70;49.38
68867;SHT30;56451;44.804;20.476;2023-10-19T13:43:35;22.68;49.29
68867;SHT30;56451;44.804;20.476;2023-10-19T13:46:05;22.68;49.51
68867;SHT30;56451;44.804;20.476;2023-10-19T13:48:31;22.63;49.67
68867;SHT30;56451;44.804;20.476;2023-10-19T13:51:01;22.60;49.95
68867;SHT30;56451;44.804;20.476;2023-10-19T13:53:41;22.57;50.48
68867;SHT30;56451;44.804;20.476;2023-10-19T13:56:11;22.59;50.47
68867;SHT30;56451;44.804;20.476;2023-10-19T13:58:38;22.53;50.27
68867;SHT30;56451;44.804;20.476;2023-10-19T14:01:08;22.53;50.50
68867;SHT30;56451;44.804;20.476;2023-10-19T14:03:35;22.52;50.20
68867;SHT30;56451;44.804;20.476;2023-10-19T14:06:03;22.54;50.34
68867;SHT30;56451;44.804;20.476;2023-10-19T14:08:29;22.52;50.52
68867;SHT30;56451;44.804;20.476;2023-10-19T14:11:03;22.53;50.67
68867;SHT30;56451;44.804;20.476;2023-10-19T14:13:29;22.53;50.64
68867;SHT30;56451;44.804;20.476;2023-10-19T14:15:56;22.53;50.60
68867;SHT30;56451;44.804;20.476;2023-10-19T14:18:21;22.52;50.81
68867;SHT30;56451;44.804;20.476;2023-10-19T14:20:48;22.49;50.90
68867;SHT30;56451;44.804;20.476;2023-10-19T14:23:14;22.50;50.83
68867;SHT30;56451;44.804;20.476;2023-10-19T14:25:40;22.46;50.99
68867;SHT30;56451;44.804;20.476;2023-10-19T14:28:08;22.46;51.23
68867;SHT30;56451;44.804;20.476;2023-10-19T14:30:35;22.46;51.19
68867;SHT30;56451;44.804;20.476;2023-10-19T14:33:03;22.46;51.44
68867;SHT30;56451;44.804;20.476;2023-10-19T14:35:30;22.49;51.38
68867;SHT30;56451;44.804;20.476;2023-10-19T14:37:56;22.50;51.34
68867;SHT30;56451;44.804;20.476;2023-10-19T14:40:26;22.53;51.55
68867;SHT30;56451;44.804;20.476;2023-10-19T14:42:54;22.53;51.51
68867;SHT30;56451;44.804;20.476;2023-10-19T14:45:25;22.54;51.58
68867;SHT30;56451;44.804;20.476;2023-10-19T14:47:58;22.54;51.80
68867;SHT30;56451;44.804;20.476;2023-10-19T14:50:25;22.56;51.78
68867;SHT30;56451;44.804;20.476;2023-10-19T14:52:54;22.57;51.78
68867;SHT30;56451;44.804;20.476;2023-10-19T14:55:21;22.53;51.69
68867;SHT30;56451;44.804;20.476;2023-10-19T14:57:50;22.53;51.66
68867;SHT30;56451;44.804;20.476;2023-10-19T15:00:23;22.53;51.45
68867;SHT30;56451;44.804;20.476;2023-10-19T15:03:22;22.49;51.44
68867;SHT30;56451;44.804;20.476;2023-10-19T15:05:51;22.49;51.28
68867;SHT30;56451;44.804;20.476;2023-10-19T15:08:21;22.43;51.33
68867;SHT30;56451;44.804;20.476;2023-10-19T15:10:53;22.42;51.37
68867;SHT30;56451;44.804;20.476;2023-10-19T15:13:20;22.43;51.33
68867;SHT30;56451;44.804;20.476;2023-10-19T15:15:46;22.40;51.38
68867;SHT30;56451;44.804;20.476;2023-10-19T15:18:12;22.37;51.39
68867;SHT30;56451;44.804;20.476;2023-10-19T15:20:39;22.32;51.55
68867;SHT30;56451;44.804;20.476;2023-10-19T15:23:05;22.33;51.51
68867;SHT30;56451;44.804;20.476;2023-10-19T15:25:32;22.29;51.44
68867;SHT30;56451;44.804;20.476;2023-10-19T15:27:59;22.30;51.66
68867;SHT30;56451;44.804;20.476;2023-10-19T15:30:26;22.29;51.46
68867;SHT30;56451;44.804;20.476;2023-10-19T15:32:54;22.28;51.41
68867;SHT30;56451;44.804;20.476;2023-10-19T15:35:21;22.28;51.27
68867;SHT30;56451;44.804;20.476;2023-10-19T15:37:50;22.28;51.37
68867;SHT30;56451;44.804;20.476;2023-10-19T15:40:21;22.28;51.35
68867;SHT30;56451;44.804;20.476;2023-10-19T15:42:48;22.25;51.43
68867;SHT30;56451;44.804;20.476;2023-10-19T15:45:15;22.19;51.35
68867;SHT30;56451;44.804;20.476;2023-10-19T15:47:46;22.20;51.22
68867;SHT30;56451;44.804;20.476;2023-10-19T15:50:14;22.23;51.16